createdAt,value
2018-11-22T00:00:05.253Z,0.00
2018-11-22T00:01:57.173Z,0.00
2018-11-22T00:02:57.186Z,0.00
2018-11-22T00:04:49.096Z,0.00
2018-11-22T00:05:49.107Z,0.00
2018-11-22T00:07:40.970Z,0.00
2018-11-22T00:08:40.980Z,0.00
2018-11-22T00:10:32.899Z,0.00
2018-11-22T00:11:32.881Z,0.00
2018-11-22T00:13:24.810Z,0.00
2018-11-22T00:14:24.790Z,0.00
2018-11-22T00:16:16.715Z,0.00
2018-11-22T00:17:16.706Z,0.00
2018-11-22T00:19:08.608Z,0.00
2018-11-22T00:20:08.613Z,0.00
2018-11-22T00:22:00.533Z,0.00
2018-11-22T00:23:00.525Z,0.00
2018-11-22T00:24:52.424Z,0.00
2018-11-22T00:25:52.435Z,0.00
2018-11-22T00:27:44.347Z,0.00
2018-11-22T00:28:44.332Z,0.00
2018-11-22T00:30:36.267Z,0.00
2018-11-22T00:31:36.253Z,0.00
2018-11-22T00:33:28.154Z,0.00
2018-11-22T00:34:28.177Z,0.00
2018-11-22T00:36:20.076Z,0.00
2018-11-22T00:37:20.065Z,0.00
2018-11-22T00:39:11.966Z,0.00
2018-11-22T00:40:11.970Z,0.00
2018-11-22T00:42:03.901Z,0.00
2018-11-22T00:43:03.948Z,0.00
2018-11-22T00:44:55.804Z,0.00
2018-11-22T00:45:55.797Z,0.00
2018-11-22T00:47:47.729Z,0.00
2018-11-22T00:48:47.733Z,0.00
2018-11-22T00:50:39.665Z,0.00
2018-11-22T00:51:39.637Z,0.00
2018-11-22T00:53:31.583Z,0.00
2018-11-22T00:54:31.562Z,0.00
2018-11-22T00:56:23.541Z,0.00
2018-11-22T00:57:23.481Z,0.00
2018-11-22T00:59:15.384Z,0.00
2018-11-22T01:00:15.397Z,0.00
2018-11-22T01:02:07.311Z,0.00
2018-11-22T01:03:07.297Z,0.00
2018-11-22T01:04:59.204Z,0.00
2018-11-22T01:05:59.207Z,0.00
2018-11-22T01:07:51.142Z,0.00
2018-11-22T01:08:51.128Z,0.00
2018-11-22T01:10:43.059Z,0.00
2018-11-22T01:11:43.045Z,0.00
2018-11-22T01:13:34.950Z,0.00
2018-11-22T01:14:34.956Z,0.00
2018-11-22T01:16:27.374Z,0.00
2018-11-22T01:17:27.359Z,0.00
2018-11-22T01:19:19.267Z,0.00
2018-11-22T01:20:19.273Z,0.00
2018-11-22T01:22:11.193Z,0.00
2018-11-22T01:23:11.178Z,0.00
2018-11-22T01:24:11.191Z,0.00
2018-11-22T01:25:11.205Z,0.00
2018-11-22T01:26:11.217Z,0.00
2018-11-22T01:27:11.226Z,0.00
2018-11-22T01:28:11.236Z,0.00
2018-11-22T01:29:11.249Z,0.00
2018-11-22T01:30:11.263Z,0.00
2018-11-22T01:31:11.271Z,0.00
2018-11-22T01:32:11.283Z,0.00
2018-11-22T01:33:11.295Z,0.00
2018-11-22T01:34:11.303Z,0.00
2018-11-22T01:35:11.315Z,0.00
2018-11-22T01:36:11.336Z,0.00
2018-11-22T01:37:11.345Z,0.00
2018-11-22T01:38:11.354Z,0.00
2018-11-22T01:39:11.363Z,0.00
2018-11-22T01:40:11.376Z,0.00
2018-11-22T01:41:11.391Z,0.00
2018-11-22T01:42:11.403Z,0.00
2018-11-22T01:43:11.412Z,0.00
2018-11-22T01:44:11.426Z,0.00
2018-11-22T01:45:11.430Z,0.00
2018-11-22T01:46:11.448Z,0.00
2018-11-22T01:47:11.455Z,0.00
2018-11-22T01:48:11.468Z,0.00
2018-11-22T01:49:11.485Z,0.00
2018-11-22T01:50:11.537Z,0.00
2018-11-22T01:51:11.500Z,0.00
2018-11-22T01:52:11.516Z,0.00
2018-11-22T01:53:11.540Z,0.00
2018-11-22T01:54:11.541Z,0.00
2018-11-22T01:55:11.550Z,0.00
2018-11-22T01:56:11.561Z,0.00
2018-11-22T01:57:11.568Z,0.00
2018-11-22T01:58:11.586Z,0.00
2018-11-22T01:59:11.597Z,0.00
2018-11-22T02:00:11.603Z,0.00
2018-11-22T02:01:11.618Z,0.00
2018-11-22T02:02:11.629Z,0.00
2018-11-22T02:03:11.640Z,0.00
2018-11-22T02:04:11.649Z,0.00
2018-11-22T02:05:11.663Z,0.00
2018-11-22T02:06:11.673Z,0.00
2018-11-22T02:07:11.683Z,0.00
2018-11-22T02:08:11.700Z,0.00
2018-11-22T02:09:11.712Z,0.00
2018-11-22T02:10:11.724Z,0.00
2018-11-22T02:11:11.739Z,0.00
2018-11-22T02:12:11.741Z,0.00
2018-11-22T02:13:11.758Z,0.00
2018-11-22T02:14:11.765Z,0.00
2018-11-22T02:15:11.780Z,0.00
2018-11-22T02:16:11.793Z,0.00
2018-11-22T02:17:11.798Z,0.00
2018-11-22T02:18:11.811Z,0.00
2018-11-22T02:19:11.822Z,0.00
2018-11-22T02:20:11.834Z,0.00
2018-11-22T02:21:11.841Z,0.00
2018-11-22T02:22:11.902Z,0.00
2018-11-22T02:23:11.871Z,0.00
2018-11-22T02:24:11.876Z,0.00
2018-11-22T02:25:11.893Z,0.00
2018-11-22T02:26:11.903Z,0.00
2018-11-22T02:27:11.913Z,0.00
2018-11-22T02:28:11.926Z,0.00
2018-11-22T02:29:11.941Z,0.00
2018-11-22T02:30:11.950Z,0.00
2018-11-22T02:31:11.959Z,0.00
2018-11-22T02:32:11.973Z,0.00
2018-11-22T02:33:11.982Z,0.00
2018-11-22T02:34:12.000Z,0.00
2018-11-22T02:35:12.005Z,0.00
2018-11-22T02:36:12.016Z,0.00
2018-11-22T02:37:12.028Z,0.00
2018-11-22T02:38:12.040Z,0.00
2018-11-22T02:39:12.062Z,0.00
2018-11-22T02:40:12.065Z,0.00
2018-11-22T02:41:12.080Z,0.00
2018-11-22T02:42:12.089Z,0.00
2018-11-22T02:43:12.100Z,0.00
2018-11-22T02:44:12.113Z,0.00
2018-11-22T02:45:12.123Z,0.00
2018-11-22T02:46:12.134Z,0.00
2018-11-22T02:47:12.145Z,0.00
2018-11-22T02:48:12.153Z,0.00
2018-11-22T02:49:12.169Z,0.00
2018-11-22T02:50:12.179Z,0.00
2018-11-22T02:51:12.194Z,0.00
2018-11-22T02:52:12.203Z,0.00
2018-11-22T02:53:12.222Z,0.00
2018-11-22T02:54:12.226Z,0.00
2018-11-22T02:55:13.221Z,0.00
2018-11-22T02:56:12.249Z,0.00
2018-11-22T02:57:12.263Z,0.00
2018-11-22T02:58:12.275Z,0.00
2018-11-22T02:59:12.285Z,0.00
2018-11-22T03:00:12.295Z,0.00
2018-11-22T03:01:12.311Z,0.00
2018-11-22T03:02:12.321Z,0.00
2018-11-22T03:03:12.328Z,0.00
2018-11-22T03:04:12.339Z,0.00
2018-11-22T03:05:12.359Z,0.00
2018-11-22T03:06:12.378Z,0.00
2018-11-22T03:07:12.376Z,0.00
2018-11-22T03:08:12.390Z,0.00
2018-11-22T03:09:12.402Z,0.00
2018-11-22T03:37:51.612Z,0.00
2018-11-22T03:38:51.640Z,0.00
2018-11-22T03:40:43.486Z,0.00
2018-11-22T03:41:43.481Z,0.00
2018-11-22T03:43:35.885Z,0.00
2018-11-22T03:44:35.878Z,0.00
2018-11-22T03:46:27.772Z,0.00
2018-11-22T03:47:27.774Z,0.00
2018-11-22T03:49:19.712Z,0.00
2018-11-22T03:50:19.679Z,0.00
2018-11-22T03:52:11.667Z,0.00
2018-11-22T03:53:11.604Z,0.00
2018-11-22T03:55:03.505Z,0.00
2018-11-22T03:56:03.510Z,0.00
2018-11-22T03:57:55.432Z,0.00
2018-11-22T03:58:55.413Z,0.00
2018-11-22T04:00:47.307Z,0.00
2018-11-22T04:01:47.315Z,0.00
2018-11-22T04:03:39.237Z,0.00
2018-11-22T04:04:39.219Z,0.00
2018-11-22T04:06:31.139Z,0.00
2018-11-22T04:07:31.149Z,0.00
2018-11-22T04:09:23.066Z,0.00
2018-11-22T04:10:23.053Z,0.00
2018-11-22T04:12:14.964Z,0.00
2018-11-22T04:13:14.965Z,0.00
2018-11-22T04:15:06.889Z,0.00
2018-11-22T04:16:06.871Z,0.00
2018-11-22T04:17:59.297Z,0.00
2018-11-22T04:18:59.280Z,0.00
2018-11-22T04:20:51.182Z,0.00
2018-11-22T04:21:51.192Z,0.00
2018-11-22T04:23:44.657Z,0.00
2018-11-22T04:24:44.589Z,0.00
2018-11-22T04:26:37.006Z,0.00
2018-11-22T04:27:37.006Z,0.00
2018-11-22T04:29:28.929Z,0.00
2018-11-22T04:30:28.915Z,0.00
2018-11-22T04:32:21.352Z,0.00
2018-11-22T04:33:21.318Z,0.00
2018-11-22T04:35:13.241Z,0.00
2018-11-22T04:36:13.225Z,0.00
2018-11-22T04:38:05.147Z,0.00
2018-11-22T04:39:05.141Z,0.00
2018-11-22T04:40:57.032Z,0.00
2018-11-22T04:41:57.072Z,0.00
2018-11-22T04:43:51.970Z,0.00
2018-11-22T04:44:51.967Z,0.00
2018-11-22T04:46:43.862Z,0.00
2018-11-22T04:47:43.861Z,0.00
2018-11-22T04:49:35.782Z,0.00
2018-11-22T04:50:35.832Z,0.00
2018-11-22T04:52:27.666Z,0.00
2018-11-22T04:53:27.675Z,0.00
2018-11-22T04:55:19.590Z,0.00
2018-11-22T04:56:19.578Z,0.00
2018-11-22T04:58:11.506Z,0.00
2018-11-22T04:59:11.498Z,0.00
2018-11-22T05:01:06.392Z,0.00
2018-11-22T05:02:06.399Z,0.00
2018-11-22T05:03:58.339Z,0.00
2018-11-22T05:04:58.311Z,0.00
2018-11-22T05:06:50.709Z,0.00
2018-11-22T05:07:50.713Z,0.00
2018-11-22T05:09:42.643Z,0.00
2018-11-22T05:10:42.685Z,0.00
2018-11-22T05:12:34.535Z,0.00
2018-11-22T05:13:34.539Z,0.00
2018-11-22T05:15:26.956Z,0.00
2018-11-22T05:16:26.941Z,0.00
2018-11-22T05:18:19.361Z,0.00
2018-11-22T05:19:19.345Z,0.00
2018-11-22T05:21:11.742Z,0.00
2018-11-22T05:22:11.755Z,0.00
2018-11-22T05:24:03.673Z,0.00
2018-11-22T05:25:03.650Z,0.00
2018-11-22T05:26:55.553Z,0.00
2018-11-22T05:27:55.561Z,0.00
2018-11-22T05:29:48.974Z,0.00
2018-11-22T05:30:48.961Z,0.00
2018-11-22T05:32:40.861Z,0.00
2018-11-22T05:33:40.868Z,0.00
2018-11-22T05:35:32.816Z,0.00
2018-11-22T05:36:32.789Z,0.00
2018-11-22T05:38:24.715Z,0.00
2018-11-22T05:39:24.703Z,0.00
2018-11-22T05:41:16.610Z,0.00
2018-11-22T05:42:16.614Z,0.00
2018-11-22T05:44:08.539Z,0.00
2018-11-22T05:45:08.529Z,0.00
2018-11-22T05:47:02.647Z,0.00
2018-11-22T05:48:00.433Z,0.00
2018-11-22T05:49:52.368Z,0.00
2018-11-22T05:50:52.349Z,0.00
2018-11-22T05:52:44.255Z,0.00
2018-11-22T05:53:44.257Z,0.00
2018-11-22T05:55:36.186Z,0.00
2018-11-22T05:56:36.169Z,0.00
2018-11-22T05:58:28.079Z,0.00
2018-11-22T05:59:28.080Z,0.00
2018-11-22T06:01:20.007Z,0.00
2018-11-22T06:02:19.987Z,0.00
2018-11-22T06:04:11.909Z,0.00
2018-11-22T06:05:11.892Z,0.00
2018-11-22T06:07:03.806Z,0.00
2018-11-22T06:08:03.807Z,0.00
2018-11-22T06:09:55.732Z,0.00
2018-11-22T06:10:55.731Z,0.00
2018-11-22T06:12:47.639Z,0.00
2018-11-22T06:13:47.639Z,0.00
2018-11-22T06:15:39.561Z,0.00
2018-11-22T06:16:39.547Z,0.00
2018-11-22T06:18:31.498Z,0.00
2018-11-22T06:19:31.459Z,0.00
2018-11-22T06:21:23.380Z,0.00
2018-11-22T06:22:23.365Z,0.00
2018-11-22T06:24:15.297Z,0.00
2018-11-22T06:25:15.281Z,0.00
2018-11-22T06:27:07.185Z,0.00
2018-11-22T06:28:07.190Z,0.00
2018-11-22T06:30:00.605Z,0.00
2018-11-22T06:31:01.577Z,0.00
2018-11-22T06:32:52.511Z,0.00
2018-11-22T06:33:52.509Z,4.00
2018-11-22T06:35:44.437Z,0.00
2018-11-22T06:36:44.424Z,4.00
2018-11-22T06:38:36.326Z,4.00
2018-11-22T06:39:36.330Z,4.00
2018-11-22T06:41:28.757Z,4.00
2018-11-22T06:42:28.739Z,4.00
2018-11-22T06:44:20.661Z,8.00
2018-11-22T06:45:20.645Z,8.00
2018-11-22T06:47:12.549Z,8.00
2018-11-22T06:48:12.556Z,12.00
2018-11-22T06:50:04.477Z,12.00
2018-11-22T06:51:04.460Z,16.00
2018-11-22T06:52:56.361Z,20.00
2018-11-22T06:53:56.371Z,24.00
2018-11-22T06:55:51.607Z,28.00
2018-11-22T06:56:48.279Z,28.00
2018-11-22T06:58:40.180Z,36.00
2018-11-22T06:59:40.184Z,40.00
2018-11-22T07:01:32.115Z,44.00
2018-11-22T07:02:32.114Z,48.00
2018-11-22T07:04:24.024Z,56.00
2018-11-22T07:05:24.011Z,56.00
2018-11-22T07:07:15.932Z,64.00
2018-11-22T07:08:15.925Z,68.00
2018-11-22T07:10:07.841Z,76.00
2018-11-22T07:11:07.830Z,84.00
2018-11-22T07:12:59.735Z,92.00
2018-11-22T07:13:59.738Z,96.00
2018-11-22T07:15:52.155Z,104.00
2018-11-22T07:16:52.140Z,112.00
2018-11-22T07:18:44.041Z,120.00
2018-11-22T07:19:44.055Z,124.00
2018-11-22T07:21:35.977Z,132.00
2018-11-22T07:22:35.965Z,136.00
2018-11-22T07:24:27.909Z,140.00
2018-11-22T07:25:27.874Z,152.00
2018-11-22T07:27:19.785Z,164.00
2018-11-22T07:28:19.779Z,172.00
2018-11-22T07:30:11.702Z,180.00
2018-11-22T07:31:11.686Z,180.00
2018-11-22T07:33:03.596Z,188.00
2018-11-22T07:34:03.602Z,192.00
2018-11-22T07:35:56.024Z,208.00
2018-11-22T07:36:56.015Z,212.00
2018-11-22T07:38:47.919Z,232.00
2018-11-22T07:39:47.928Z,240.00
2018-11-22T07:41:39.841Z,252.00
2018-11-22T07:42:39.829Z,252.00
2018-11-22T07:44:31.883Z,284.00
2018-11-22T07:45:31.896Z,288.00
2018-11-22T07:47:23.928Z,300.00
2018-11-22T07:48:23.775Z,292.00
2018-11-22T07:50:15.768Z,300.00
2018-11-22T07:51:15.782Z,292.00
2018-11-22T07:53:07.724Z,304.00
2018-11-22T07:54:07.696Z,312.00
2018-11-22T07:55:59.744Z,312.00
2018-11-22T07:56:59.690Z,300.00
2018-11-22T07:58:51.560Z,324.00
2018-11-22T07:59:51.510Z,336.00
2018-11-22T08:01:43.565Z,332.00
2018-11-22T08:02:43.473Z,344.00
2018-11-22T08:04:35.421Z,376.00
2018-11-22T08:05:35.365Z,384.00
2018-11-22T08:07:27.301Z,388.00
2018-11-22T08:08:27.355Z,392.00
2018-11-22T08:10:19.252Z,388.00
2018-11-22T08:11:19.224Z,380.00
2018-11-22T08:13:11.150Z,396.00
2018-11-22T08:14:11.175Z,400.00
2018-11-22T08:16:03.360Z,416.00
2018-11-22T08:17:03.109Z,432.00
2018-11-22T08:18:54.983Z,436.00
2018-11-22T08:19:55.112Z,452.00
2018-11-22T08:21:46.910Z,460.00
2018-11-22T08:22:46.943Z,468.00
2018-11-22T08:24:40.264Z,480.00
2018-11-22T08:25:38.861Z,492.00
2018-11-22T08:27:30.845Z,488.00
2018-11-22T08:28:30.841Z,500.00
2018-11-22T08:30:22.653Z,508.00
2018-11-22T08:31:22.812Z,488.00
2018-11-22T08:33:14.580Z,492.00
2018-11-22T08:34:14.582Z,496.00
2018-11-22T08:36:06.781Z,480.00
2018-11-22T08:37:06.503Z,480.00
2018-11-22T08:38:58.402Z,500.00
2018-11-22T08:39:58.403Z,512.00
2018-11-22T08:41:50.324Z,556.00
2018-11-22T08:42:55.110Z,604.00
2018-11-22T08:44:42.218Z,692.00
2018-11-22T08:45:42.223Z,732.00
2018-11-22T08:47:34.153Z,780.00
2018-11-22T08:48:34.141Z,792.00
2018-11-22T08:50:26.074Z,884.00
2018-11-22T08:51:26.058Z,924.00
2018-11-22T08:53:17.982Z,1000.00
2018-11-22T08:54:17.968Z,1048.00
2018-11-22T08:56:09.892Z,1120.00
2018-11-22T08:57:09.876Z,1140.00
2018-11-22T08:59:01.781Z,1176.00
2018-11-22T09:00:01.793Z,1192.00
2018-11-22T09:01:53.711Z,1140.00
2018-11-22T09:02:53.702Z,1184.00
2018-11-22T09:04:45.630Z,1172.00
2018-11-22T09:05:45.636Z,1144.00
2018-11-22T09:07:37.552Z,1072.00
2018-11-22T09:08:37.538Z,1072.00
2018-11-22T09:09:37.552Z,1172.00
2018-11-22T09:10:37.594Z,1248.00
2018-11-22T09:11:37.576Z,1224.00
2018-11-22T09:12:37.611Z,1160.00
2018-11-22T09:13:37.607Z,1092.00
2018-11-22T09:14:37.612Z,1076.00
2018-11-22T09:15:37.624Z,1092.00
2018-11-22T09:16:37.643Z,1080.00
2018-11-22T09:17:37.659Z,1108.00
2018-11-22T09:18:37.675Z,1080.00
2018-11-22T09:19:37.674Z,1028.00
2018-11-22T09:20:37.692Z,972.00
2018-11-22T09:21:37.711Z,904.00
2018-11-22T09:22:37.720Z,916.00
2018-11-22T09:23:38.531Z,912.00
2018-11-22T09:24:37.739Z,940.00
2018-11-22T09:25:37.752Z,924.00
2018-11-22T09:26:37.770Z,884.00
2018-11-22T09:27:37.781Z,828.00
2018-11-22T09:28:37.784Z,792.00
2018-11-22T09:29:39.590Z,756.00
2018-11-22T09:30:37.811Z,732.00
2018-11-22T09:31:37.822Z,708.00
2018-11-22T09:32:37.843Z,676.00
2018-11-22T09:33:37.849Z,652.00
2018-11-22T09:34:37.865Z,672.00
2018-11-22T09:35:37.874Z,680.00
2018-11-22T09:36:37.884Z,712.00
2018-11-22T09:37:37.906Z,732.00
2018-11-22T09:38:37.913Z,748.00
2018-11-22T09:39:37.932Z,764.00
2018-11-22T09:40:37.936Z,788.00
2018-11-22T09:41:37.948Z,808.00
2018-11-22T09:42:37.968Z,852.00
2018-11-22T09:43:37.988Z,880.00
2018-11-22T09:44:37.985Z,920.00
2018-11-22T09:45:38.003Z,928.00
2018-11-22T09:46:38.021Z,936.00
2018-11-22T09:47:38.027Z,948.00
2018-11-22T09:48:38.097Z,984.00
2018-11-22T09:49:38.050Z,1052.00
2018-11-22T09:50:38.061Z,1052.00
2018-11-22T09:51:38.075Z,1020.00
2018-11-22T09:52:38.089Z,1004.00
2018-11-22T09:53:38.097Z,1028.00
2018-11-22T09:54:38.120Z,1064.00
2018-11-22T09:55:38.124Z,1064.00
2018-11-22T09:56:38.135Z,1020.00
2018-11-22T09:57:38.156Z,1008.00
2018-11-22T09:58:38.168Z,1056.00
2018-11-22T09:59:38.183Z,1160.00
2018-11-22T10:00:38.186Z,1272.00
2018-11-22T10:01:38.197Z,1420.00
2018-11-22T10:02:38.209Z,1564.00
2018-11-22T10:03:38.225Z,1540.00
2018-11-22T10:04:38.300Z,1520.00
2018-11-22T10:05:38.304Z,1556.00
2018-11-22T10:06:38.260Z,1568.00
2018-11-22T10:07:38.274Z,1560.00
2018-11-22T10:08:38.332Z,1448.00
2018-11-22T10:09:38.298Z,1388.00
2018-11-22T10:10:38.312Z,1340.00
2018-11-22T10:11:38.325Z,1284.00
2018-11-22T10:12:38.406Z,1284.00
2018-11-22T10:13:38.349Z,1328.00
2018-11-22T10:14:38.366Z,1244.00
2018-11-22T10:15:38.380Z,1108.00
2018-11-22T10:16:38.394Z,1208.00
2018-11-22T10:17:38.402Z,1384.00
2018-11-22T10:18:38.485Z,1424.00
2018-11-22T10:19:38.430Z,1416.00
2018-11-22T10:20:38.437Z,1376.00
2018-11-22T10:21:38.465Z,1488.00
2018-11-22T10:22:38.570Z,1540.00
2018-11-22T10:23:38.533Z,1520.00
2018-11-22T10:24:38.512Z,1440.00
2018-11-22T10:25:38.523Z,1416.00
2018-11-22T10:26:38.517Z,1396.00
2018-11-22T10:27:38.527Z,1352.00
2018-11-22T10:28:38.546Z,1380.00
2018-11-22T10:29:38.561Z,1488.00
2018-11-22T10:30:38.573Z,1572.00
2018-11-22T10:31:38.633Z,1568.00
2018-11-22T10:32:38.597Z,1512.00
2018-11-22T10:33:38.620Z,1492.00
2018-11-22T10:34:38.619Z,1464.00
2018-11-22T10:35:38.631Z,1468.00
2018-11-22T10:36:38.690Z,1536.00
2018-11-22T10:37:38.701Z,1484.00
2018-11-22T10:38:38.681Z,1472.00
2018-11-22T10:39:38.690Z,1492.00
2018-11-22T10:40:38.701Z,1424.00
2018-11-22T10:41:38.714Z,1336.00
2018-11-22T10:42:38.737Z,1320.00
2018-11-22T10:43:38.733Z,1272.00
2018-11-22T10:44:38.748Z,1240.00
2018-11-22T10:45:38.764Z,1176.00
2018-11-22T10:46:38.794Z,1132.00
2018-11-22T10:47:38.798Z,1104.00
2018-11-22T10:48:38.803Z,1032.00
2018-11-22T10:49:38.816Z,964.00
2018-11-22T10:50:38.833Z,936.00
2018-11-22T10:51:38.848Z,940.00
2018-11-22T10:52:38.866Z,944.00
2018-11-22T10:53:38.876Z,968.00
2018-11-22T10:54:38.907Z,1160.00
2018-11-22T10:55:38.894Z,1272.00
2018-11-22T10:56:38.907Z,1296.00
2018-11-22T10:57:38.919Z,1300.00
2018-11-22T10:58:38.935Z,1292.00
2018-11-22T10:59:38.953Z,1400.00
2018-11-22T11:00:38.959Z,1432.00
2018-11-22T11:01:38.978Z,1392.00
2018-11-22T11:02:38.988Z,1420.00
2018-11-22T11:03:39.005Z,1464.00
2018-11-22T11:04:39.007Z,1496.00
2018-11-22T11:05:39.024Z,1508.00
2018-11-22T11:06:39.038Z,1532.00
2018-11-22T11:07:39.059Z,1528.00
2018-11-22T11:08:39.066Z,1540.00
2018-11-22T11:09:39.076Z,1564.00
2018-11-22T11:10:39.091Z,1584.00
2018-11-22T11:11:39.103Z,1644.00
2018-11-22T11:12:39.121Z,1588.00
2018-11-22T11:13:39.137Z,1368.00
2018-11-22T11:14:39.144Z,1216.00
2018-11-22T11:15:39.168Z,1168.00
2018-11-22T11:16:39.171Z,1160.00
2018-11-22T11:17:39.179Z,1184.00
2018-11-22T11:18:39.191Z,1172.00
2018-11-22T11:19:39.208Z,1108.00
2018-11-22T11:20:39.224Z,1124.00
2018-11-22T11:21:39.238Z,1220.00
2018-11-22T11:22:39.261Z,1336.00
2018-11-22T11:23:39.281Z,1396.00
2018-11-22T11:24:39.691Z,1420.00
2018-11-22T11:25:39.300Z,1504.00
2018-11-22T11:26:39.302Z,1548.00
2018-11-22T11:27:39.317Z,1608.00
2018-11-22T11:28:39.347Z,1664.00
2018-11-22T11:29:39.332Z,1744.00
2018-11-22T11:30:39.358Z,1756.00
2018-11-22T11:31:39.362Z,1816.00
2018-11-22T11:32:39.371Z,1856.00
2018-11-22T11:33:39.391Z,1860.00
2018-11-22T11:34:39.407Z,1860.00
2018-11-22T11:35:39.422Z,1876.00
2018-11-22T11:36:39.426Z,1888.00
2018-11-22T11:37:39.441Z,1912.00
2018-11-22T11:38:39.453Z,1892.00
2018-11-22T11:39:39.473Z,1828.00
2018-11-22T11:40:39.479Z,1780.00
2018-11-22T11:41:39.503Z,1796.00
2018-11-22T11:42:39.510Z,1840.00
2018-11-22T11:43:39.526Z,1848.00
2018-11-22T11:44:39.533Z,1804.00
2018-11-22T11:45:39.547Z,1812.00
2018-11-22T11:46:39.557Z,1784.00
2018-11-22T11:47:39.583Z,1724.00
2018-11-22T11:48:39.590Z,1700.00
2018-11-22T11:49:39.606Z,1712.00
2018-11-22T11:50:39.620Z,1708.00
2018-11-22T11:51:39.630Z,1712.00
2018-11-22T11:52:39.652Z,1816.00
2018-11-22T11:53:41.550Z,1928.00
2018-11-22T11:54:39.671Z,1964.00
2018-11-22T11:55:39.681Z,1956.00
2018-11-22T11:56:39.707Z,1940.00
2018-11-22T11:57:39.719Z,1992.00
2018-11-22T11:58:39.727Z,2064.00
2018-11-22T11:59:39.735Z,2136.00
2018-11-22T12:00:39.752Z,2176.00
2018-11-22T12:01:39.760Z,2188.00
2018-11-22T12:02:39.786Z,2196.00
2018-11-22T12:03:39.791Z,2188.00
2018-11-22T12:04:39.806Z,2164.00
2018-11-22T12:05:39.820Z,2144.00
2018-11-22T12:06:39.828Z,2152.00
2018-11-22T12:07:39.848Z,2144.00
2018-11-22T12:08:39.853Z,2148.00
2018-11-22T12:09:39.868Z,2148.00
2018-11-22T12:10:39.888Z,2116.00
2018-11-22T12:11:39.899Z,2040.00
2018-11-22T12:12:39.902Z,2020.00
2018-11-22T12:13:39.922Z,2028.00
2018-11-22T12:14:39.935Z,2032.00
2018-11-22T12:15:39.951Z,2040.00
2018-11-22T12:16:39.962Z,2044.00
2018-11-22T12:17:39.974Z,2048.00
2018-11-22T12:18:39.984Z,2036.00
2018-11-22T12:19:40.001Z,2016.00
2018-11-22T12:20:40.021Z,1980.00
2018-11-22T12:21:40.054Z,1924.00
2018-11-22T12:22:40.050Z,1876.00
2018-11-22T12:23:40.055Z,1864.00
2018-11-22T12:24:40.067Z,1840.00
2018-11-22T12:25:40.078Z,1820.00
2018-11-22T12:26:40.141Z,1816.00
2018-11-22T12:27:40.122Z,1844.00
2018-11-22T12:28:40.121Z,1860.00
2018-11-22T12:29:40.139Z,1864.00
2018-11-22T12:30:40.158Z,1892.00
2018-11-22T12:31:40.167Z,1908.00
2018-11-22T12:32:40.185Z,1904.00
2018-11-22T12:33:40.194Z,1928.00
2018-11-22T12:34:40.202Z,1936.00
2018-11-22T12:35:40.217Z,1948.00
2018-11-22T12:36:40.229Z,1964.00
2018-11-22T12:37:43.357Z,1980.00
2018-11-22T12:38:40.262Z,2008.00
2018-11-22T12:39:40.289Z,2016.00
2018-11-22T12:40:40.295Z,2032.00
2018-11-22T12:41:40.302Z,2052.00
2018-11-22T12:42:40.318Z,2080.00
2018-11-22T12:43:40.326Z,2120.00
2018-11-22T12:44:40.333Z,2152.00
2018-11-22T12:45:40.356Z,2176.00
2018-11-22T12:46:40.361Z,2180.00
2018-11-22T12:47:40.377Z,2196.00
2018-11-22T12:48:40.389Z,2236.00
2018-11-22T12:49:40.401Z,2268.00
2018-11-22T12:50:40.417Z,2288.00
2018-11-22T12:51:40.430Z,2316.00
2018-11-22T12:52:40.446Z,2320.00
2018-11-22T12:53:40.455Z,2316.00
2018-11-22T12:54:40.471Z,2304.00
2018-11-22T12:55:40.486Z,2296.00
2018-11-22T12:56:40.499Z,2288.00
2018-11-22T12:57:40.509Z,2272.00
2018-11-22T12:58:40.552Z,2248.00
2018-11-22T12:59:40.543Z,2232.00
2018-11-22T13:00:40.552Z,2228.00
2018-11-22T13:01:40.565Z,2240.00
2018-11-22T13:02:40.579Z,2244.00
2018-11-22T13:03:40.595Z,2260.00
2018-11-22T13:04:40.605Z,2268.00
2018-11-22T13:05:40.617Z,2268.00
2018-11-22T13:06:40.638Z,2268.00
2018-11-22T13:07:40.647Z,2272.00
2018-11-22T13:08:40.660Z,2276.00
2018-11-22T13:09:40.672Z,2272.00
2018-11-22T13:10:40.686Z,2264.00
2018-11-22T13:11:41.747Z,2252.00
2018-11-22T13:12:40.713Z,2240.00
2018-11-22T13:13:40.730Z,2224.00
2018-11-22T13:14:40.748Z,2208.00
2018-11-22T13:15:40.752Z,2180.00
2018-11-22T13:16:40.769Z,2156.00
2018-11-22T13:17:40.780Z,2140.00
2018-11-22T13:18:40.794Z,2132.00
2018-11-22T13:19:40.812Z,2132.00
2018-11-22T13:20:40.831Z,2132.00
2018-11-22T13:21:40.840Z,2160.00
2018-11-22T13:22:40.849Z,2184.00
2018-11-22T13:23:40.863Z,2200.00
2018-11-22T13:24:40.878Z,2220.00
2018-11-22T13:25:40.894Z,2256.00
2018-11-22T13:26:40.903Z,2288.00
2018-11-22T13:27:40.917Z,2332.00
2018-11-22T13:28:40.935Z,2364.00
2018-11-22T13:29:40.943Z,2384.00
2018-11-22T13:30:40.964Z,2404.00
2018-11-22T13:31:40.978Z,2388.00
2018-11-22T13:32:40.985Z,2408.00
2018-11-22T13:33:41.005Z,2412.00
2018-11-22T13:34:41.012Z,2384.00
2018-11-22T13:35:41.029Z,2392.00
2018-11-22T13:36:41.039Z,2400.00
2018-11-22T13:37:41.056Z,2436.00
2018-11-22T13:38:41.076Z,2432.00
2018-11-22T13:39:41.089Z,2448.00
2018-11-22T13:40:41.095Z,2500.00
2018-11-22T13:41:41.116Z,2516.00
2018-11-22T13:42:41.133Z,2540.00
2018-11-22T13:43:41.137Z,2568.00
2018-11-22T13:44:41.152Z,2584.00
2018-11-22T13:45:41.174Z,2592.00
2018-11-22T13:46:41.178Z,2596.00
2018-11-22T13:47:41.198Z,2596.00
2018-11-22T13:48:41.203Z,2584.00
2018-11-22T13:49:41.223Z,2576.00
2018-11-22T13:50:42.102Z,2572.00
2018-11-22T13:51:41.250Z,2552.00
2018-11-22T13:52:41.262Z,2544.00
2018-11-22T13:53:41.278Z,2544.00
2018-11-22T13:54:41.291Z,2540.00
2018-11-22T13:55:41.305Z,2544.00
2018-11-22T13:56:41.318Z,2528.00
2018-11-22T13:57:41.338Z,2508.00
2018-11-22T13:58:41.351Z,2488.00
2018-11-22T13:59:41.366Z,2460.00
2018-11-22T14:00:41.375Z,2424.00
2018-11-22T14:01:41.390Z,2372.00
2018-11-22T14:02:41.403Z,2324.00
2018-11-22T14:03:41.427Z,2284.00
2018-11-22T14:04:41.434Z,2248.00
2018-11-22T14:05:41.447Z,2220.00
2018-11-22T14:06:41.459Z,2196.00
2018-11-22T14:07:41.480Z,2176.00
2018-11-22T14:08:41.488Z,2164.00
2018-11-22T14:09:41.504Z,2148.00
2018-11-22T14:10:41.530Z,2136.00
2018-11-22T14:11:41.536Z,2152.00
2018-11-22T14:12:41.542Z,2148.00
2018-11-22T14:13:41.557Z,2160.00
2018-11-22T14:14:41.572Z,2160.00
2018-11-22T14:15:41.585Z,2152.00
2018-11-22T14:16:41.600Z,2132.00
2018-11-22T14:17:41.615Z,2112.00
2018-11-22T14:18:41.632Z,2084.00
2018-11-22T14:19:41.642Z,2060.00
2018-11-22T14:20:41.661Z,2028.00
2018-11-22T14:21:41.670Z,1996.00
2018-11-22T14:22:41.687Z,1968.00
2018-11-22T14:23:41.709Z,1940.00
2018-11-22T14:24:41.806Z,1896.00
2018-11-22T14:25:45.068Z,1864.00
2018-11-22T14:26:41.739Z,1820.00
2018-11-22T14:27:41.757Z,1772.00
2018-11-22T14:28:41.841Z,1728.00
2018-11-22T14:29:41.782Z,1688.00
2018-11-22T14:30:41.798Z,1636.00
2018-11-22T14:31:41.812Z,1588.00
2018-11-22T14:32:41.852Z,1548.00
2018-11-22T14:33:41.840Z,1512.00
2018-11-22T14:34:41.858Z,1484.00
2018-11-22T14:35:41.868Z,1456.00
2018-11-22T14:36:41.884Z,1424.00
2018-11-22T14:37:41.930Z,1392.00
2018-11-22T14:38:41.910Z,1360.00
2018-11-22T14:39:41.920Z,1328.00
2018-11-22T14:40:41.934Z,1296.00
2018-11-22T14:41:41.954Z,1272.00
2018-11-22T14:42:41.965Z,1248.00
2018-11-22T14:43:41.982Z,1220.00
2018-11-22T14:44:41.992Z,1200.00
2018-11-22T14:45:42.016Z,1176.00
2018-11-22T14:46:42.021Z,1152.00
2018-11-22T14:47:42.033Z,1132.00
2018-11-22T14:48:42.046Z,1108.00
2018-11-22T14:49:42.061Z,1080.00
2018-11-22T14:50:42.080Z,1056.00
2018-11-22T14:51:42.088Z,1032.00
2018-11-22T14:52:42.111Z,1004.00
2018-11-22T14:53:42.119Z,980.00
2018-11-22T14:54:42.129Z,956.00
2018-11-22T14:55:42.145Z,936.00
2018-11-22T14:56:42.158Z,908.00
2018-11-22T14:57:42.167Z,884.00
2018-11-22T14:58:42.185Z,860.00
2018-11-22T14:59:42.198Z,840.00
2018-11-22T15:00:42.208Z,816.00
2018-11-22T15:01:42.238Z,796.00
2018-11-22T15:02:42.241Z,772.00
2018-11-22T15:03:42.262Z,748.00
2018-11-22T15:04:42.265Z,724.00
2018-11-22T15:05:42.277Z,704.00
2018-11-22T15:06:42.295Z,676.00
2018-11-22T15:07:42.304Z,652.00
2018-11-22T15:08:42.319Z,628.00
2018-11-22T15:09:42.336Z,604.00